Freeman, Indiana
Current Conditions -  °F | °C
As of 1:53 AM on Sunday 26 Oct 2014 (Local Time) from KBMG Reporting Station
Clear Clear  
Wind Chill: 59°   Ceiling: Unl
Heat Index: 59°   Visibility: 10mi
Dew Point: 42°   Wind: 3mph
Humidity: 53%   Direction: NA
Pressure: 29.98"   Gusts: NA
Location:  39.3008°N, 86.8112°W
Report Text: KBMG 260553Z VRB03KT 10SM CLR 15/06 A2998 RMK AO2 RAB05E14 SLP149 P0000 60000 T01500056 10189 20150 51004
Loading
Personal Weather Stations






























Interactive Weather Map New forecast layout! Learn more

10-Day Weather Forecast

Advertisements
Track Severe Weather on mobile